KBEA

Details ICAO KBEA
Name BEEVILLE MUNI
Region United States
Timezone America/Chicago (UTC-5.0)
Plans Departing 2
Arriving 2
Stats Elevation 268 ft / 82 m (AMSL)
Location 28.365475° -97.792406°
Runways 2
Magnetic Variation 3.834° E
Sunrise 2018-05-24 11:37:58 UTC / 2018-05-24 06:37:58 Local
Sunset 2018-05-25 01:20:58 UTC / 2018-05-24 20:20:58 Local
Advertisement - Login to hide

Runways

ID Width Length Bearing (true) Bearing (mag) Surface Threshold Offset Overrun Length
12 75 ft / 23 m 4,553 ft / 1,388 m 131.11° 127.28° Asphalt 0 ft / 0 m 0 ft / 0 m
18 60 ft / 18 m 2,538 ft / 774 m 189.08° 185.25° Grass 0 ft / 0 m 0 ft / 0 m
30 75 ft / 23 m 4,553 ft / 1,388 m 311.11° 307.28° Asphalt 0 ft / 0 m 0 ft / 0 m
36 60 ft / 18 m 2,538 ft / 774 m 9.08° 5.25° Grass 0 ft / 0 m 0 ft / 0 m

Map

Weather


0- 5 10 15 20 25 30 35+ Temperature / ° C

Clouds and Precipitation
Forecast for 2018-05-24 18:00 UTC. Updated 4 hours ago

Ground ~20,000 ft ~40,000 ft Winds

METAR

KBEA 242135Z AUTO 13011G17KT 10SM CLR 33/22 A2996 RMK AO2 T03290223

TAF

Not found

Frequencies

Unicom 122.80 MHz CTAF/UNICOM
Warning: Do not use this data for real-world aviation or navigation. No guarantee of current accuracy is given.